Time;durP1;ratioP1;P1;durP2;ratioP2;P2;SDS_P1;SDS_P2;PMS_P1;PMS_P2;Temp;Humidity;BMP_temperature;BMP_pressure;BME280_temperature;BME280_humidity;BME280_pressure;Samples;Min_cycle;Max_cycle;Signal;HPM_P1;HPM_P2
2022/11/22 00:01:30;;;;;;;1.80;1.00;;;9.30;99.90;;;;;;5031979;28;20492;-71
2022/11/22 00:03:55;;;;;;;3.10;1.10;;;9.20;99.90;;;;;;5030985;28;20561;-71
2022/11/22 00:06:21;;;;;;;1.50;1.00;;;9.20;99.90;;;;;;5031492;28;20394;-71
2022/11/22 00:08:47;;;;;;;2.30;1.20;;;9.20;99.90;;;;;;5032595;28;20394;-70
2022/11/22 00:11:12;;;;;;;2.33;0.97;;;9.20;99.90;;;;;;5030306;28;20425;-70
2022/11/22 00:13:38;;;;;;;3.53;1.10;;;9.20;99.90;;;;;;5030411;28;20399;-70
2022/11/22 00:16:04;;;;;;;2.27;1.10;;;9.10;99.90;;;;;;5030428;28;20818;-70
2022/11/22 00:18:30;;;;;;;1.60;1.27;;;9.20;99.90;;;;;;5031522;28;20556;-71
2022/11/22 00:20:56;;;;;;;2.75;1.30;;;9.10;99.90;;;;;;5031184;28;20395;-71
2022/11/22 00:23:21;;;;;;;1.90;1.20;;;9.10;99.90;;;;;;5028664;28;20386;-71
2022/11/22 00:25:47;;;;;;;2.47;1.10;;;9.10;99.90;;;;;;5028921;28;20413;-71
2022/11/22 00:28:12;;;;;;;3.92;1.50;;;9.00;99.90;;;;;;5032932;28;20391;-71
2022/11/22 00:30:38;;;;;;;4.30;1.60;;;9.00;99.90;;;;;;5050895;28;20493;-71
2022/11/22 00:33:03;;;;;;;3.63;1.53;;;9.00;99.90;;;;;;5039975;28;20424;-71
2022/11/22 00:35:29;;;;;;;3.80;1.50;;;9.00;99.90;;;;;;5050710;28;20989;-71
2022/11/22 00:37:55;;;;;;;3.80;1.30;;;9.00;99.90;;;;;;5050830;28;20502;-71
2022/11/22 00:40:20;;;;;;;4.00;1.60;;;9.00;99.90;;;;;;5048235;28;20902;-72
2022/11/22 00:42:46;;;;;;;2.73;1.40;;;9.00;99.90;;;;;;5048852;28;20425;-71
2022/11/22 00:45:11;;;;;;;3.90;1.40;;;8.90;99.90;;;;;;5050943;28;20396;-71
2022/11/22 00:47:37;;;;;;;4.18;1.70;;;9.00;99.90;;;;;;5049418;28;20434;-71
2022/11/22 00:50:03;;;;;;;3.10;1.20;;;9.00;99.90;;;;;;5050542;28;20536;-71
2022/11/22 00:52:29;;;;;;;2.28;1.30;;;8.90;99.90;;;;;;5050523;28;20768;-71
2022/11/22 00:54:55;;;;;;;4.43;1.40;;;9.00;99.90;;;;;;5050318;28;20384;-71
2022/11/22 00:57:20;;;;;;;5.57;1.50;;;9.00;99.90;;;;;;5050645;28;20417;-72
2022/11/22 00:59:46;;;;;;;4.20;1.20;;;9.00;99.90;;;;;;5050629;28;20442;-71
2022/11/22 01:02:11;;;;;;;3.73;1.47;;;9.00;99.90;;;;;;5050575;28;20447;-71
2022/11/22 01:04:37;;;;;;;4.15;1.42;;;8.90;99.90;;;;;;5049656;28;20397;-71
2022/11/22 01:07:02;;;;;;;1.85;1.30;;;9.00;99.90;;;;;;5050416;28;20501;-71
2022/11/22 01:09:28;;;;;;;3.30;1.47;;;9.00;99.90;;;;;;5038862;28;20750;-72
2022/11/22 01:11:53;;;;;;;3.20;1.30;;;9.00;99.90;;;;;;5030653;28;20414;-71
2022/11/22 01:14:19;;;;;;;5.67;1.63;;;9.10;99.90;;;;;;5029564;28;20789;-71
2022/11/22 01:16:45;;;;;;;5.43;1.75;;;9.00;99.90;;;;;;5030437;28;20745;-71
2022/11/22 01:19:10;;;;;;;2.58;1.10;;;9.00;99.90;;;;;;5030202;28;20436;-71
2022/11/22 01:21:36;;;;;;;4.80;1.30;;;9.00;99.90;;;;;;5030619;28;20466;-71
2022/11/22 01:24:02;;;;;;;3.70;1.60;;;9.00;99.90;;;;;;5028051;28;20390;-71
2022/11/22 01:26:28;;;;;;;5.22;2.00;;;9.00;99.90;;;;;;5029894;28;20387;-71
2022/11/22 01:28:53;;;;;;;6.93;2.00;;;9.00;99.90;;;;;;5030077;28;20375;-71
2022/11/22 01:31:19;;;;;;;7.20;2.00;;;9.00;99.90;;;;;;5030163;28;20905;-71
2022/11/22 01:33:44;;;;;;;6.10;1.40;;;9.00;99.90;;;;;;5029168;28;20379;-71
2022/11/22 01:36:10;;;;;;;4.07;1.30;;;8.90;99.90;;;;;;5030159;28;20454;-71
2022/11/22 01:38:35;;;;;;;5.75;1.90;;;8.90;99.90;;;;;;5030009;28;20563;-71
2022/11/22 01:41:01;;;;;;;6.18;1.60;;;8.90;99.90;;;;;;5048492;28;20389;-71
2022/11/22 01:43:27;;;;;;;4.60;1.60;;;8.90;99.90;;;;;;5049185;28;21071;-71
2022/11/22 01:45:55;;;;;;;6.80;1.80;;;8.90;99.90;;;;;;5050986;28;20411;-71
2022/11/22 01:48:45;;;;;;;3.90;1.42;;;8.80;99.90;;;;;;5048380;28;20392;-71
2022/11/22 01:51:36;;;;;;;5.80;2.15;;;8.80;99.90;;;;;;5049948;28;20405;-71
2022/11/22 01:54:08;;;;;;;5.40;1.60;;;8.90;99.90;;;;;;5039558;28;20849;-70
2022/11/22 01:56:36;;;;;;;6.13;2.10;;;8.80;99.90;;;;;;5049743;28;20755;-71
2022/11/22 01:59:07;;;;;;;4.90;1.55;;;8.70;99.90;;;;;;5049709;28;20378;-70
2022/11/22 02:01:33;;;;;;;6.25;1.55;;;8.80;99.90;;;;;;5049994;28;20460;-70
2022/11/22 02:04:03;;;;;;;5.53;1.77;;;8.80;99.90;;;;;;5048927;28;20458;-70
2022/11/22 02:06:40;;;;;;;4.53;1.77;;;8.80;99.90;;;;;;5049847;28;20506;-71
2022/11/22 02:09:16;;;;;;;4.32;1.83;;;8.80;99.90;;;;;;5048146;28;20386;-70
2022/11/22 02:11:47;;;;;;;3.70;1.55;;;8.80;99.90;;;;;;5044590;28;20410;-71
2022/11/22 02:14:15;;;;;;;4.88;1.48;;;8.80;99.90;;;;;;5029000;28;20796;-70
2022/11/22 02:16:42;;;;;;;6.15;2.33;;;8.80;99.90;;;;;;5029894;28;20391;-70
2022/11/22 02:19:31;;;;;;;4.78;1.75;;;8.70;99.90;;;;;;5028311;28;20724;-70
2022/11/22 02:22:04;;;;;;;4.13;1.83;;;8.70;99.90;;;;;;5028578;28;20379;-70
2022/11/22 02:24:49;;;;;;;3.20;1.70;;;8.70;99.90;;;;;;5028866;28;20462;-71
2022/11/22 02:27:15;;;;;;;5.13;1.90;;;8.70;99.90;;;;;;5029738;28;20397;-71
2022/11/22 02:29:41;;;;;;;2.65;1.35;;;8.70;99.90;;;;;;5045369;28;20484;-71
2022/11/22 02:32:06;;;;;;;7.18;1.83;;;8.60;99.90;;;;;;5041040;28;20383;-71
2022/11/22 02:34:47;;;;;;;5.63;2.07;;;8.60;99.90;;;;;;5047601;28;20489;-71
2022/11/22 02:37:16;;;;;;;5.60;1.65;;;8.60;99.90;;;;;;5046589;28;20399;-71
2022/11/22 02:39:45;;;;;;;4.93;1.60;;;8.60;99.90;;;;;;5045825;28;20381;-71
2022/11/22 02:42:11;;;;;;;6.53;1.70;;;8.60;99.90;;;;;;5051971;28;20408;-71
2022/11/22 02:44:37;;;;;;;10.77;1.90;;;8.60;99.90;;;;;;5052215;28;20428;-71
2022/11/22 02:47:03;;;;;;;4.10;1.70;;;8.50;99.90;;;;;;5053164;28;20420;-71
2022/11/22 02:49:28;;;;;;;6.47;1.60;;;8.50;99.90;;;;;;5052967;28;20413;-71
2022/11/22 02:51:54;;;;;;;3.83;1.33;;;8.60;99.90;;;;;;5053154;28;20420;-71
2022/11/22 02:54:20;;;;;;;8.83;2.37;;;8.50;99.90;;;;;;5052093;28;20405;-71
2022/11/22 02:56:45;;;;;;;4.07;1.60;;;8.50;99.90;;;;;;5052951;28;20712;-71
2022/11/22 02:59:11;;;;;;;3.88;1.85;;;8.50;99.90;;;;;;5052803;28;20409;-71
2022/11/22 03:01:37;;;;;;;7.93;2.03;;;8.50;99.90;;;;;;5052936;28;20473;-71
2022/11/22 03:04:02;;;;;;;4.47;1.77;;;8.50;99.90;;;;;;5052050;28;20381;-71
2022/11/22 03:06:28;;;;;;;4.23;1.70;;;8.40;99.90;;;;;;5052797;28;20465;-71
2022/11/22 03:08:54;;;;;;;4.83;1.40;;;8.40;99.90;;;;;;5051297;28;20393;-70
2022/11/22 03:11:20;;;;;;;7.15;1.80;;;8.40;99.90;;;;;;5052445;28;20401;-70
2022/11/22 03:13:45;;;;;;;4.68;1.30;;;8.40;99.90;;;;;;5037942;28;20391;-71
2022/11/22 03:16:11;;;;;;;4.10;1.80;;;8.40;99.90;;;;;;5032753;28;20884;-71
2022/11/22 03:18:36;;;;;;;4.27;1.60;;;8.30;99.90;;;;;;5032600;28;20387;-71
2022/11/22 03:21:03;;;;;;;4.33;1.43;;;8.30;99.90;;;;;;5032628;28;20390;-71
2022/11/22 03:23:29;;;;;;;5.63;1.50;;;8.30;99.90;;;;;;5032738;28;20486;-71
2022/11/22 03:25:55;;;;;;;5.63;1.90;;;8.40;99.90;;;;;;5032050;28;20389;-71
2022/11/22 03:28:21;;;;;;;8.05;2.00;;;8.30;99.90;;;;;;5032454;28;20952;-70
2022/11/22 03:30:46;;;;;;;7.17;1.93;;;8.40;99.90;;;;;;5032175;28;20411;-71
2022/11/22 03:33:12;;;;;;;4.10;1.70;;;8.40;99.90;;;;;;5031764;28;20516;-70
2022/11/22 03:35:38;;;;;;;5.18;1.70;;;8.40;99.90;;;;;;5032121;28;20403;-71
2022/11/22 03:38:04;;;;;;;7.13;1.75;;;8.40;99.90;;;;;;5032578;28;20379;-70
2022/11/22 03:40:29;;;;;;;6.63;2.00;;;8.40;99.90;;;;;;5046240;28;20701;-71
2022/11/22 03:42:59;;;;;;;5.60;1.60;;;8.40;99.90;;;;;;5051393;28;20390;-70
2022/11/22 03:45:25;;;;;;;5.47;1.40;;;8.30;99.90;;;;;;5051862;28;20964;-70
2022/11/22 03:47:50;;;;;;;6.30;1.98;;;8.30;99.90;;;;;;5052077;28;20896;-70
2022/11/22 03:50:16;;;;;;;5.30;1.80;;;8.20;99.90;;;;;;5051503;28;20417;-71
2022/11/22 03:52:41;;;;;;;9.27;2.25;;;8.30;99.90;;;;;;5051202;28;20606;-71
2022/11/22 03:55:07;;;;;;;8.85;2.20;;;8.30;99.90;;;;;;5051559;28;20428;-70
2022/11/22 03:57:33;;;;;;;5.60;1.60;;;8.30;99.90;;;;;;5051684;28;20369;-70
2022/11/22 03:59:58;;;;;;;5.47;1.60;;;8.30;99.90;;;;;;5051827;28;20382;-71
2022/11/22 04:02:24;;;;;;;5.40;1.40;;;8.30;99.90;;;;;;5051444;28;20751;-70
2022/11/22 04:04:49;;;;;;;6.20;1.80;;;8.30;99.90;;;;;;5051227;28;20393;-71
2022/11/22 04:07:15;;;;;;;5.57;2.20;;;8.30;99.90;;;;;;5050289;28;20392;-70
2022/11/22 04:09:40;;;;;;;7.60;1.95;;;8.30;99.90;;;;;;5051495;28;20400;-71
2022/11/22 04:12:06;;;;;;;7.18;2.20;;;8.30;99.90;;;;;;5051516;28;20386;-70
2022/11/22 04:17:39;;;;;;;4.25;1.70;;;8.40;99.90;;;;;;5051440;28;20376;-71
2022/11/22 04:22:54;;;;;;;5.88;1.63;;;8.40;99.90;;;;;;5031033;28;20378;-71
2022/11/22 04:25:20;;;;;;;7.25;1.80;;;8.30;99.90;;;;;;5031928;28;20953;-70
2022/11/22 04:27:45;;;;;;;5.93;2.00;;;8.30;99.90;;;;;;5051088;28;20407;-71
2022/11/22 04:30:11;;;;;;;5.00;1.60;;;8.30;99.90;;;;;;5033771;28;20422;-70
2022/11/22 04:32:45;;;;;;;6.07;2.07;;;8.30;99.90;;;;;;5049326;28;20390;-70
2022/11/22 04:35:17;;;;;;;5.97;1.80;;;8.30;99.90;;;;;;5040700;28;20777;-71
2022/11/22 04:37:49;;;;;;;5.50;1.48;;;8.20;99.90;;;;;;5030101;28;20861;-70
2022/11/22 04:40:15;;;;;;;7.03;1.60;;;8.30;99.90;;;;;;5043349;28;20385;-70
2022/11/22 04:45:25;;;;;;;5.47;2.10;;;8.20;99.90;;;;;;5031195;28;20444;-70
2022/11/22 04:47:59;;;;;;;5.33;1.70;;;8.20;99.90;;;;;;5031317;28;20390;-70
2022/11/22 04:53:12;;;;;;;6.90;2.00;;;8.20;99.90;;;;;;5038561;28;20373;-70
2022/11/22 04:55:37;;;;;;;6.07;1.98;;;8.10;99.90;;;;;;5046315;28;20754;-71
2022/11/22 04:58:03;;;;;;;5.22;1.90;;;8.10;99.90;;;;;;5031192;28;20470;-71
2022/11/22 05:00:29;;;;;;;6.45;1.70;;;8.10;99.90;;;;;;5031227;28;20383;-71
2022/11/22 05:02:55;;;;;;;8.20;1.60;;;8.00;99.90;;;;;;5030142;28;20385;-70
2022/11/22 05:05:21;;;;;;;8.43;2.50;;;8.00;99.90;;;;;;5029660;28;20915;-70
2022/11/22 05:07:46;;;;;;;4.43;1.85;;;8.00;99.90;;;;;;5030929;28;20395;-70
2022/11/22 05:10:12;;;;;;;5.05;2.00;;;8.00;99.90;;;;;;5030782;28;20441;-70
2022/11/22 05:12:39;;;;;;;5.53;1.80;;;7.90;99.90;;;;;;5030187;28;20383;-70
2022/11/22 05:15:05;;;;;;;2.42;1.42;;;7.90;99.90;;;;;;5030647;28;20877;-71
2022/11/22 05:17:31;;;;;;;7.20;2.53;;;8.00;99.90;;;;;;5039651;28;20400;-71
2022/11/22 05:19:56;;;;;;;6.63;2.65;;;8.00;99.90;;;;;;5042206;28;20805;-70
2022/11/22 05:23:53;;;;;;;5.00;2.40;;;7.90;99.90;;;;;;5030701;28;20403;-70
2022/11/22 05:25:10;;;;;;;3.00;1.30;;;7.90;99.90;;;;;;5030197;28;20867;-71
2022/11/22 05:27:36;;;;;;;4.80;1.80;;;8.00;99.90;;;;;;5030515;28;20504;-71
2022/11/22 05:30:03;;;;;;;6.43;1.50;;;7.90;99.90;;;;;;5030549;28;20768;-70
2022/11/22 05:32:30;;;;;;;5.65;1.90;;;7.90;99.90;;;;;;5044154;28;20463;-71
2022/11/22 05:34:56;;;;;;;6.05;2.17;;;7.90;99.90;;;;;;5049807;28;20402;-71
2022/11/22 05:37:22;;;;;;;5.18;1.75;;;7.90;99.90;;;;;;5045810;28;20966;-71
2022/11/22 05:39:47;;;;;;;6.70;2.13;;;7.90;99.90;;;;;;5046729;28;20407;-70
2022/11/22 05:42:13;;;;;;;4.75;1.95;;;7.90;99.90;;;;;;5045138;28;20437;-70
2022/11/22 05:44:38;;;;;;;3.88;1.63;;;7.90;99.90;;;;;;5046783;28;20497;-70
2022/11/22 05:47:04;;;;;;;3.60;1.50;;;7.80;99.90;;;;;;5046569;28;20437;-70
2022/11/22 05:49:30;;;;;;;5.43;1.60;;;7.90;99.90;;;;;;5048002;28;20911;-71
2022/11/22 05:51:56;;;;;;;5.00;1.98;;;8.00;99.90;;;;;;5042698;28;20411;-71
2022/11/22 05:54:21;;;;;;;4.30;2.00;;;7.90;99.90;;;;;;5045318;28;20392;-71
2022/11/22 05:56:47;;;;;;;4.75;1.58;;;7.90;99.90;;;;;;5041228;28;20397;-71
2022/11/22 05:59:13;;;;;;;6.03;1.85;;;7.90;99.90;;;;;;5041468;28;20411;-71
2022/11/22 06:01:38;;;;;;;7.03;1.80;;;7.90;99.90;;;;;;5045990;28;20412;-71
2022/11/22 06:04:04;;;;;;;6.28;2.20;;;8.00;99.90;;;;;;5039772;28;20484;-71
2022/11/22 06:06:30;;;;;;;6.43;1.70;;;7.90;99.90;;;;;;5042515;28;20411;-71
2022/11/22 06:08:57;;;;;;;7.18;1.90;;;7.90;99.90;;;;;;5042348;28;20426;-71
2022/11/22 06:11:24;;;;;;;8.37;1.70;;;7.90;99.90;;;;;;5043492;28;20652;-71
2022/11/22 06:13:52;;;;;;;5.43;1.42;;;7.90;99.90;;;;;;5043179;28;20416;-72
2022/11/22 06:16:18;;;;;;;6.85;2.00;;;7.80;99.90;;;;;;5049444;28;20393;-72
2022/11/22 06:18:44;;;;;;;5.40;1.80;;;7.90;99.90;;;;;;5045835;28;20405;-72
2022/11/22 06:21:12;;;;;;;9.25;2.53;;;7.80;99.90;;;;;;5045588;28;20417;-71
2022/11/22 06:23:37;;;;;;;7.63;2.60;;;7.80;99.90;;;;;;5046198;28;20410;-71
2022/11/22 06:26:09;;;;;;;6.68;2.45;;;7.70;99.90;;;;;;5046304;28;20487;-71
2022/11/22 06:28:36;;;;;;;7.00;3.03;;;7.70;99.90;;;;;;5043322;28;20404;-71
2022/11/22 06:31:11;;;;;;;6.60;1.70;;;7.80;99.90;;;;;;5044457;28;20433;-71
2022/11/22 06:33:38;;;;;;;5.40;1.50;;;7.70;99.90;;;;;;5048652;28;20381;-71
2022/11/22 06:36:09;;;;;;;5.85;2.25;;;7.70;99.90;;;;;;5046234;28;20417;-71
2022/11/22 06:38:35;;;;;;;6.20;1.70;;;7.70;99.90;;;;;;5052577;28;20385;-71
2022/11/22 06:41:02;;;;;;;7.22;1.65;;;7.60;99.90;;;;;;5047846;28;20434;-71
2022/11/22 06:43:32;;;;;;;9.07;1.95;;;7.60;99.90;;;;;;5051844;28;20392;-71
2022/11/22 06:45:59;;;;;;;6.87;2.17;;;7.60;99.90;;;;;;5050969;28;20430;-71
2022/11/22 06:48:29;;;;;;;4.82;1.42;;;7.50;99.90;;;;;;5052016;28;20439;-72
2022/11/22 06:51:18;;;;;;;4.80;1.80;;;7.50;99.90;;;;;;5044598;28;20413;-71
2022/11/22 06:53:44;;;;;;;8.85;1.80;;;7.50;99.90;;;;;;5045871;28;20405;-71
2022/11/22 06:56:14;;;;;;;5.22;1.77;;;7.50;99.90;;;;;;5048045;28;20772;-71
2022/11/22 06:58:40;;;;;;;5.97;2.00;;;7.60;99.90;;;;;;5050405;28;20429;-71
2022/11/22 07:01:12;;;;;;;6.00;1.70;;;7.50;99.90;;;;;;5046639;28;20443;-70
2022/11/22 07:03:39;;;;;;;7.10;2.20;;;7.50;99.90;;;;;;5046708;28;20424;-71
2022/11/22 07:06:06;;;;;;;5.43;1.90;;;7.50;99.90;;;;;;5041728;28;20787;-72
2022/11/22 07:08:33;;;;;;;7.75;1.70;;;7.50;99.90;;;;;;5043353;28;20405;-71
2022/11/22 07:11:07;;;;;;;6.40;1.83;;;7.50;99.90;;;;;;5046472;28;20405;-71
2022/11/22 07:13:33;;;;;;;7.47;2.08;;;7.50;99.90;;;;;;5046168;28;20788;-72
2022/11/22 07:16:01;;;;;;;5.80;1.50;;;7.50;99.90;;;;;;5047390;28;20945;-72
2022/11/22 07:18:27;;;;;;;6.72;1.73;;;7.50;99.90;;;;;;5040757;28;20456;-73
2022/11/22 07:21:03;;;;;;;6.63;1.63;;;7.50;99.90;;;;;;5043767;28;20405;-73
2022/11/22 07:23:29;;;;;;;6.65;1.90;;;7.60;99.90;;;;;;5048465;28;20946;-72
2022/11/22 07:25:54;;;;;;;8.35;1.80;;;7.50;99.90;;;;;;5045506;28;20501;-72
2022/11/22 07:28:20;;;;;;;5.47;1.60;;;7.50;99.90;;;;;;5048892;28;20427;-73
2022/11/22 07:30:46;;;;;;;6.40;2.00;;;7.60;99.90;;;;;;5053604;28;20516;-72
2022/11/22 07:33:11;;;;;;;5.83;1.70;;;7.60;99.90;;;;;;5032570;28;20408;-71
2022/11/22 07:35:37;;;;;;;6.75;2.40;;;7.60;99.90;;;;;;5030424;28;20762;-72
2022/11/22 07:38:03;;;;;;;5.05;1.50;;;7.60;99.90;;;;;;5032505;28;20395;-71
2022/11/22 07:40:29;;;;;;;6.40;2.22;;;7.50;99.90;;;;;;5046302;28;20394;-71
2022/11/22 07:42:54;;;;;;;5.93;2.20;;;7.60;99.90;;;;;;5051416;28;20450;-72
2022/11/22 07:45:20;;;;;;;5.87;1.93;;;7.60;99.90;;;;;;5051029;28;20418;-72
2022/11/22 07:47:45;;;;;;;6.15;2.20;;;7.60;99.90;;;;;;5050338;28;20751;-71
2022/11/22 07:50:11;;;;;;;6.60;2.50;;;7.50;99.90;;;;;;5052428;28;20405;-71
2022/11/22 07:52:37;;;;;;;3.77;1.50;;;7.60;99.90;;;;;;5051635;28;20423;-71
2022/11/22 07:55:05;;;;;;;6.13;1.90;;;7.50;99.90;;;;;;5052574;28;20470;-71
2022/11/22 07:57:30;;;;;;;9.50;2.30;;;7.60;99.90;;;;;;5052517;28;20385;-71
2022/11/22 07:59:56;;;;;;;9.83;2.70;;;7.70;99.90;;;;;;5053282;28;20867;-71
2022/11/22 08:02:22;;;;;;;4.70;1.77;;;7.60;99.90;;;;;;5058653;28;20373;-71
2022/11/22 08:04:47;;;;;;;5.43;1.53;;;7.60;99.90;;;;;;5057980;28;20439;-72
2022/11/22 08:07:13;;;;;;;6.70;1.80;;;7.60;99.90;;;;;;5058058;28;20468;-72
2022/11/22 08:09:38;;;;;;;6.53;1.50;;;7.60;99.90;;;;;;5058394;28;20798;-71
2022/11/22 08:12:04;;;;;;;6.07;1.50;;;7.60;99.90;;;;;;5059432;28;20927;-72
2022/11/22 08:14:29;;;;;;;5.78;2.00;;;7.60;99.90;;;;;;5057171;28;20450;-71
2022/11/22 08:16:55;;;;;;;4.57;1.50;;;7.60;99.90;;;;;;5059650;28;20381;-71
2022/11/22 08:19:20;;;;;;;2.97;1.45;;;7.60;99.90;;;;;;5059145;28;20404;-72
2022/11/22 08:21:47;;;;;;;5.88;1.75;;;7.80;99.90;;;;;;5057972;28;20394;-72
2022/11/22 08:24:14;;;;;;;5.78;1.58;;;7.70;99.90;;;;;;5055036;28;20757;-72
2022/11/22 08:26:40;;;;;;;4.47;1.60;;;7.80;99.90;;;;;;5053682;28;20428;-72
2022/11/22 08:29:07;;;;;;;6.05;1.50;;;7.70;99.90;;;;;;5051747;28;20413;-72
2022/11/22 08:31:33;;;;;;;5.78;1.42;;;7.80;99.90;;;;;;5051445;28;20414;-71
2022/11/22 08:33:58;;;;;;;3.67;1.30;;;7.90;99.90;;;;;;5050552;28;20394;-71
2022/11/22 08:36:25;;;;;;;3.80;1.27;;;7.80;99.90;;;;;;5050604;28;20872;-71
2022/11/22 08:38:51;;;;;;;5.10;1.50;;;7.90;99.90;;;;;;5051340;28;20381;-71
2022/11/22 08:41:16;;;;;;;6.00;1.80;;;7.90;99.90;;;;;;5051503;28;20370;-71
2022/11/22 08:43:42;;;;;;;4.97;1.57;;;7.90;99.90;;;;;;5050482;28;20469;-72
2022/11/22 08:46:07;;;;;;;4.30;1.40;;;7.90;99.90;;;;;;5050090;28;20861;-72
2022/11/22 08:48:35;;;;;;;5.63;1.40;;;7.90;99.90;;;;;;5051315;28;20385;-71
2022/11/22 08:51:02;;;;;;;5.05;1.45;;;8.10;99.90;;;;;;5051257;28;20420;-72
2022/11/22 08:53:30;;;;;;;8.70;1.55;;;8.10;99.90;;;;;;5050418;28;20480;-72
2022/11/22 08:55:58;;;;;;;4.90;1.63;;;8.10;99.90;;;;;;5050999;28;20377;-71
2022/11/22 08:58:24;;;;;;;3.33;1.00;;;8.10;99.90;;;;;;5050797;28;20542;-71
2022/11/22 09:00:49;;;;;;;6.30;1.50;;;8.10;99.90;;;;;;5051051;28;20476;-71
2022/11/22 09:03:15;;;;;;;3.08;1.60;;;8.20;99.90;;;;;;5050207;28;20392;-73
2022/11/22 09:05:40;;;;;;;4.75;1.55;;;8.20;99.90;;;;;;5049723;28;20400;-72
2022/11/22 09:08:06;;;;;;;6.90;1.40;;;8.30;99.90;;;;;;5050949;28;20385;-73
2022/11/22 09:10:31;;;;;;;3.00;1.23;;;8.30;99.90;;;;;;5050798;28;20421;-71
2022/11/22 09:12:57;;;;;;;4.50;1.20;;;8.20;99.90;;;;;;5049997;28;20381;-71
2022/11/22 09:15:22;;;;;;;3.60;1.20;;;8.30;99.90;;;;;;5050704;28;20393;-71
2022/11/22 09:17:48;;;;;;;7.60;1.30;;;8.30;99.90;;;;;;5050710;28;20409;-70
2022/11/22 09:20:14;;;;;;;3.90;1.50;;;8.20;99.90;;;;;;5050690;28;20483;-71
2022/11/22 09:22:39;;;;;;;5.00;1.50;;;8.20;99.90;;;;;;5048576;28;20403;-71
2022/11/22 09:25:05;;;;;;;3.70;1.70;;;8.30;99.90;;;;;;5050494;28;20389;-71
2022/11/22 09:27:32;;;;;;;3.40;1.10;;;8.20;99.90;;;;;;5050409;28;20408;-71
2022/11/22 09:29:58;;;;;;;4.97;1.50;;;8.20;99.90;;;;;;5050503;28;20404;-70
2022/11/22 09:32:24;;;;;;;4.63;1.27;;;8.20;99.90;;;;;;5050265;28;20828;-71
2022/11/22 09:34:49;;;;;;;2.38;1.10;;;8.10;99.90;;;;;;5050101;28;20758;-71
2022/11/22 09:37:17;;;;;;;6.75;1.63;;;8.10;99.90;;;;;;5050426;28;20468;-71
2022/11/22 09:39:46;;;;;;;3.80;1.38;;;8.20;99.90;;;;;;5050334;28;20396;-71
2022/11/22 09:42:33;;;;;;;3.47;1.38;;;8.20;99.90;;;;;;5050313;28;20401;-72
2022/11/22 09:45:07;;;;;;;2.45;1.40;;;8.10;99.90;;;;;;5088548;22;20462;-72
2022/11/22 09:47:53;;;;;;;4.45;1.50;;;8.20;99.90;;;;;;5069045;28;20368;-72
2022/11/22 09:50:43;;;;;;;5.95;1.40;;;8.20;99.90;;;;;;5068864;28;20483;-73
2022/11/22 09:53:21;;;;;;;4.53;1.33;;;8.10;99.90;;;;;;5069407;28;20399;-72
2022/11/22 09:55:50;;;;;;;2.67;1.20;;;8.20;99.90;;;;;;5070168;28;20364;-72
2022/11/22 09:58:49;;;;;;;3.53;1.10;;;8.10;99.90;;;;;;5070016;28;20379;-73
2022/11/22 10:01:39;;;;;;;5.68;1.83;;;8.10;99.90;;;;;;5070162;28;20463;-73
2022/11/22 10:04:31;;;;;;;4.00;1.65;;;8.10;99.90;;;;;;5068026;28;20395;-71
2022/11/22 10:07:04;;;;;;;2.95;1.13;;;8.00;99.90;;;;;;5070165;28;20436;-71
2022/11/22 10:10:05;;;;;;;3.93;1.37;;;8.00;99.90;;;;;;5070139;28;20391;-72
2022/11/22 10:12:35;;;;;;;2.73;1.00;;;8.00;99.90;;;;;;5069618;28;20458;-71
2022/11/22 10:15:52;;;;;;;4.38;1.40;;;8.00;99.90;;;;;;5069845;28;20356;-74
2022/11/22 10:18:36;;;;;;;5.30;1.13;;;7.80;99.90;;;;;;5046854;28;20814;-73
2022/11/22 10:21:02;;;;;;;3.97;1.80;;;7.90;99.90;;;;;;5069865;28;20379;-72
2022/11/22 10:23:29;;;;;;;2.50;0.90;;;8.00;99.90;;;;;;5069001;28;20384;-72
2022/11/22 10:26:25;;;;;;;2.72;0.95;;;8.10;99.90;;;;;;5069946;28;20493;-73
2022/11/22 10:29:09;;;;;;;2.10;0.80;;;8.00;99.90;;;;;;5066254;28;20380;-72
2022/11/22 10:31:39;;;;;;;2.33;0.70;;;8.10;99.90;;;;;;5069667;28;20404;-73
2022/11/22 10:34:31;;;;;;;5.72;1.60;;;8.20;99.90;;;;;;5069148;28;20463;-72
2022/11/22 10:37:16;;;;;;;2.08;1.00;;;8.20;99.90;;;;;;5069798;28;20387;-72
2022/11/22 10:40:03;;;;;;;2.35;0.75;;;8.20;99.90;;;;;;5068354;28;20407;-72
2022/11/22 10:42:46;;;;;;;2.53;1.00;;;8.30;99.90;;;;;;5069548;28;20426;-72
2022/11/22 10:45:16;;;;;;;0.63;0.40;;;8.30;99.90;;;;;;5069673;28;20828;-73
2022/11/22 10:47:57;;;;;;;3.17;1.00;;;8.40;99.90;;;;;;5068799;28;20444;-74
2022/11/22 10:50:38;;;;;;;1.27;0.70;;;8.40;99.90;;;;;;5069656;28;20407;-73
2022/11/22 10:53:20;;;;;;;1.40;0.70;;;8.50;99.90;;;;;;5068852;28;20470;-74
2022/11/22 10:55:57;;;;;;;1.70;1.05;;;8.70;99.90;;;;;;5069528;28;20383;-73
2022/11/22 10:58:29;;;;;;;1.20;0.60;;;8.70;99.90;;;;;;5069646;28;20395;-74
2022/11/22 11:01:16;;;;;;;1.85;0.57;;;8.80;99.90;;;;;;5071861;28;20382;-73
2022/11/22 11:03:44;;;;;;;1.60;1.08;;;8.70;99.90;;;;;;5072541;28;20384;-73
2022/11/22 11:06:41;;;;;;;2.17;0.80;;;8.70;99.90;;;;;;5073148;28;20383;-73
2022/11/22 11:09:18;;;;;;;2.20;0.80;;;8.80;99.90;;;;;;5072944;28;20380;-72
2022/11/22 11:11:45;;;;;;;1.33;0.60;;;8.90;99.90;;;;;;5073010;28;20766;-73
2022/11/22 11:14:28;;;;;;;1.70;0.60;;;8.90;99.90;;;;;;5072285;28;20387;-73
2022/11/22 11:16:54;;;;;;;1.70;0.80;;;9.10;99.90;;;;;;5072955;28;20395;-73
2022/11/22 11:19:25;;;;;;;1.10;0.75;;;9.30;99.90;;;;;;5072931;28;20882;-73
2022/11/22 11:22:10;;;;;;;1.38;0.80;;;9.20;99.90;;;;;;5072864;28;20800;-72
2022/11/22 11:24:39;;;;;;;2.20;0.80;;;9.30;99.50;;;;;;5071949;28;20376;-72
2022/11/22 11:27:06;;;;;;;2.60;0.70;;;9.20;98.90;;;;;;5072807;28;20380;-73
2022/11/22 11:29:40;;;;;;;2.88;0.80;;;9.10;99.30;;;;;;5072556;28;20387;-73
2022/11/22 11:32:18;;;;;;;1.75;0.70;;;9.20;99.80;;;;;;5072609;28;20766;-74
2022/11/22 11:35:00;;;;;;;2.83;0.88;;;9.10;99.30;;;;;;5071793;28;20380;-72
2022/11/22 11:37:31;;;;;;;3.20;0.85;;;8.90;99.90;;;;;;5072681;28;20866;-72
2022/11/22 11:39:57;;;;;;;1.80;0.80;;;9.10;99.90;;;;;;5062536;28;20406;-73
2022/11/22 11:42:31;;;;;;;1.50;0.70;;;9.00;99.80;;;;;;5052734;28;20942;-72
2022/11/22 11:45:26;;;;;;;1.50;0.60;;;9.20;99.90;;;;;;5051949;28;20421;-73
2022/11/22 11:47:51;;;;;;;1.40;0.67;;;9.20;99.90;;;;;;5050146;28;20394;-72
2022/11/22 11:50:22;;;;;;;2.20;0.70;;;9.10;99.90;;;;;;5052329;28;20409;-74
2022/11/22 11:52:52;;;;;;;1.73;0.60;;;9.00;99.90;;;;;;5051601;28;20386;-74
2022/11/22 11:55:18;;;;;;;1.42;0.60;;;9.00;99.90;;;;;;5052330;28;20381;-72
2022/11/22 11:57:44;;;;;;;1.50;0.80;;;9.00;99.90;;;;;;5052275;28;20435;-72
2022/11/22 12:00:38;;;;;;;1.92;0.50;;;8.90;99.90;;;;;;5052139;28;20385;-73
2022/11/22 12:03:11;;;;;;;1.77;0.70;;;9.00;99.90;;;;;;5051352;28;20430;-73
2022/11/22 12:05:36;;;;;;;2.40;0.60;;;8.90;99.90;;;;;;5050735;28;20385;-73
2022/11/22 12:08:22;;;;;;;1.38;0.80;;;8.90;99.90;;;;;;5051969;28;20894;-73
2022/11/22 12:11:08;;;;;;;1.70;0.73;;;9.00;99.90;;;;;;5051438;28;20435;-72
2022/11/22 12:13:39;;;;;;;1.45;0.50;;;9.00;99.90;;;;;;5051050;28;20746;-72
2022/11/22 12:16:26;;;;;;;2.30;0.70;;;9.10;99.90;;;;;;5050561;28;20393;-73
2022/11/22 12:19:12;;;;;;;1.20;0.70;;;9.00;99.90;;;;;;5051698;28;20409;-73
2022/11/22 12:21:54;;;;;;;0.80;0.40;;;9.10;99.90;;;;;;5051701;28;20385;-73
2022/11/22 12:24:32;;;;;;;3.70;0.80;;;9.10;99.90;;;;;;5050809;28;20416;-72
2022/11/22 12:26:57;;;;;;;1.30;0.50;;;9.10;99.90;;;;;;5051483;28;20389;-73
2022/11/22 12:29:23;;;;;;;1.30;0.50;;;9.20;99.90;;;;;;5051486;28;20472;-72
2022/11/22 12:32:13;;;;;;;0.80;0.60;;;9.20;99.80;;;;;;5051420;28;20482;-72
2022/11/22 12:34:54;;;;;;;1.00;0.60;;;9.20;99.70;;;;;;5050519;28;20393;-71
2022/11/22 12:37:30;;;;;;;3.20;0.70;;;9.10;99.90;;;;;;5051392;28;20377;-71
2022/11/22 12:40:00;;;;;;;1.58;1.17;;;9.10;99.90;;;;;;5060813;28;20411;-71
2022/11/22 12:42:40;;;;;;;2.00;0.77;;;9.20;99.90;;;;;;5071219;28;20392;-72
2022/11/22 12:45:15;;;;;;;3.00;1.00;;;9.30;99.70;;;;;;5071132;28;20423;-72
2022/11/22 12:47:44;;;;;;;3.03;0.85;;;9.30;99.50;;;;;;5070212;28;20380;-73
2022/11/22 12:50:32;;;;;;;2.47;0.60;;;9.30;98.00;;;;;;5071030;28;20433;-71
2022/11/22 12:53:09;;;;;;;2.88;0.82;;;9.30;99.20;;;;;;5070092;28;20376;-72
2022/11/22 12:56:03;;;;;;;1.30;0.90;;;9.40;99.10;;;;;;5071041;28;20449;-71
2022/11/22 12:58:41;;;;;;;3.65;1.10;;;9.40;98.90;;;;;;5064938;28;20391;-72
2022/11/22 13:01:32;;;;;;;1.85;0.90;;;9.40;98.30;;;;;;5069695;28;20886;-71
2022/11/22 13:04:08;;;;;;;1.65;1.30;;;9.50;98.10;;;;;;5061723;28;20391;-72
2022/11/22 13:06:49;;;;;;;1.20;0.80;;;9.50;98.50;;;;;;5070669;28;20402;-72
2022/11/22 13:09:22;;;;;;;3.00;1.13;;;9.60;97.50;;;;;;5070707;28;20379;-72
2022/11/22 13:11:54;;;;;;;2.10;0.90;;;9.60;98.70;;;;;;5063672;28;20407;-72
2022/11/22 13:14:41;;;;;;;2.80;2.10;;;9.60;97.70;;;;;;5061935;28;20889;-72
2022/11/22 13:17:08;;;;;;;4.93;1.00;;;9.60;97.50;;;;;;5067710;28;20430;-71
2022/11/22 13:19:48;;;;;;;2.03;1.25;;;9.50;97.50;;;;;;5060127;28;20912;-73
2022/11/22 13:22:42;;;;;;;2.43;1.30;;;9.50;97.80;;;;;;5054995;28;20909;-73
2022/11/22 13:25:37;;;;;;;1.90;1.00;;;9.40;98.10;;;;;;5049945;28;20385;-72